Time;durP1;ratioP1;P1;durP2;ratioP2;P2;SDS_P1;SDS_P2;PMS_P1;PMS_P2;Temp;Humidity;BMP_temperature;BMP_pressure;BME280_temperature;BME280_humidity;BME280_pressure;Samples;Min_cycle;Max_cycle;Signal;HPM_P1;HPM_P2
2022/12/12 00:02:58;;;;;;;13.58;6.78;;;;;;;-1.67;100.00;99636.52;5087360;56;1138805;-66
2022/12/12 00:08:05;;;;;;;30.72;10.90;;;;;;;-1.63;100.00;99634.19;5107079;55;1138728;-68
2022/12/12 00:13:10;;;;;;;10.37;5.50;;;;;;;-1.61;100.00;99637.56;5099336;56;1141100;-67
2022/12/12 00:18:16;;;;;;;16.87;7.87;;;;;;;-1.56;100.00;99625.72;5119220;56;1138894;-68
2022/12/12 00:23:22;;;;;;;13.53;8.53;;;;;;;-1.54;100.00;99628.64;5099125;56;1138911;-71
2022/12/12 00:28:29;;;;;;;16.47;8.77;;;;;;;-1.56;100.00;99621.38;5044139;56;1139005;-72
2022/12/12 00:33:35;;;;;;;13.23;7.23;;;;;;;-1.51;100.00;99619.86;5055021;56;1138838;-66
2022/12/12 00:38:41;;;;;;;15.57;8.13;;;;;;;-1.52;100.00;99620.31;4964724;56;1138741;-69
2022/12/12 00:43:47;;;;;;;21.75;9.23;;;;;;;-1.54;100.00;99619.56;5019157;56;1138952;-70
2022/12/12 00:48:56;;;;;;;16.70;8.40;;;;;;;-1.51;100.00;99617.27;5097199;56;1139162;-68
2022/12/12 00:54:02;;;;;;;11.70;5.33;;;;;;;-1.47;100.00;99614.48;5003643;57;1138931;-69
2022/12/12 00:59:08;;;;;;;14.68;7.65;;;;;;;-1.44;100.00;99614.81;5054112;56;1139028;-72
2022/12/12 01:04:13;;;;;;;14.47;7.33;;;;;;;-1.47;100.00;99612.34;5091695;56;1139008;-71
2022/12/12 01:09:19;;;;;;;16.17;7.90;;;;;;;-1.50;100.00;99612.47;5094494;56;1138761;-67
2022/12/12 01:14:25;;;;;;;17.10;8.10;;;;;;;-1.50;100.00;99618.50;5064331;56;1138795;-72
2022/12/12 01:19:31;;;;;;;10.93;6.77;;;;;;;-1.49;100.00;99619.34;5114337;56;1138930;-70
2022/12/12 01:24:37;;;;;;;17.12;8.70;;;;;;;-1.50;100.00;99617.20;5109081;55;1139076;-70
2022/12/12 01:29:43;;;;;;;11.27;5.73;;;;;;;-1.50;100.00;99618.95;5094150;55;1138911;-70
2022/12/12 01:34:48;;;;;;;17.30;8.60;;;;;;;-1.48;100.00;99614.55;5069461;56;1138904;-69
2022/12/12 01:39:54;;;;;;;18.67;7.83;;;;;;;-1.51;100.00;99618.11;5027358;57;1138881;-71
2022/12/12 01:45:00;;;;;;;18.17;9.88;;;;;;;-1.57;100.00;99622.28;5027311;56;1138835;-68
2022/12/12 01:50:09;;;;;;;18.97;9.50;;;;;;;-1.63;100.00;99616.50;5027933;55;1138901;-73
2022/12/12 01:55:19;;;;;;;16.43;7.57;;;;;;;-1.63;100.00;99613.91;5096275;55;1138837;-70
2022/12/12 02:00:26;;;;;;;24.00;10.53;;;;;;;-1.63;100.00;99619.09;5120767;56;1139051;-67
2022/12/12 02:05:36;;;;;;;16.63;8.93;;;;;;;-1.65;100.00;99623.04;5121952;55;1141024;-74
2022/12/12 02:10:43;;;;;;;21.73;11.27;;;;;;;-1.63;100.00;99619.94;5190740;55;1138875;-72
2022/12/12 02:16:09;;;;;;;21.97;10.57;;;;;;;-1.63;100.00;99613.91;5016936;56;1141074;-72
2022/12/12 02:21:22;;;;;;;21.60;10.83;;;;;;;-1.59;100.00;99612.42;5071734;55;1141120;-69
2022/12/12 02:27:00;;;;;;;18.00;9.87;;;;;;;-1.58;100.00;99606.78;5071209;56;1141017;-71
2022/12/12 02:32:44;;;;;;;23.60;11.73;;;;;;;-1.51;100.00;99609.48;4966571;55;1138908;-69
2022/12/12 02:38:08;;;;;;;31.10;13.18;;;;;;;-1.50;100.00;99605.53;5034116;55;1141078;-67
2022/12/12 02:43:24;;;;;;;25.57;12.57;;;;;;;-1.49;100.00;99596.84;5024103;55;1141143;-72
2022/12/12 02:48:34;;;;;;;16.03;8.23;;;;;;;-1.43;100.00;99600.94;5023885;55;1141047;-70
2022/12/12 02:53:41;;;;;;;25.47;11.60;;;;;;;-1.38;100.00;99594.27;5072373;55;1138828;-72
2022/12/12 02:58:47;;;;;;;22.23;11.57;;;;;;;-1.34;100.00;99595.80;5139651;55;1140865;-70
2022/12/12 03:09:56;;;;;;;22.60;9.95;;;;;;;-1.31;100.00;99585.29;5120109;55;1140964;-73
2022/12/12 03:15:18;;;;;;;17.27;9.17;;;;;;;-1.31;100.00;99591.78;5140600;55;1138911;-67
2022/12/12 03:20:40;;;;;;;15.10;8.53;;;;;;;-1.30;100.00;99596.90;5119847;55;1139175;-71
2022/12/12 03:25:53;;;;;;;19.47;8.60;;;;;;;-1.28;100.00;99596.84;5052993;56;1138939;-70
2022/12/12 03:31:03;;;;;;;18.85;8.68;;;;;;;-1.27;100.00;99595.47;5053619;56;1138810;-74
2022/12/12 03:36:13;;;;;;;16.90;8.80;;;;;;;-1.25;100.00;99588.92;5025271;57;1138721;-73
2022/12/12 03:41:21;;;;;;;16.70;8.55;;;;;;;-1.23;100.00;99589.70;4987374;57;1138931;-66
2022/12/12 03:46:38;;;;;;;18.67;7.80;;;;;;;-1.21;100.00;99587.41;5000372;56;1138946;-68
2022/12/12 03:51:51;;;;;;;16.20;9.20;;;;;;;-1.16;100.00;99583.31;5011015;56;1138874;-70
2022/12/12 03:57:13;;;;;;;18.70;8.70;;;;;;;-1.15;100.00;99581.95;5048293;56;1139064;-68
2022/12/12 04:02:32;;;;;;;15.67;7.27;;;;;;;-1.13;100.00;99585.78;5055454;56;1139099;-73
2022/12/12 04:07:43;;;;;;;16.30;8.43;;;;;;;-1.10;100.00;99578.70;5072049;56;1138990;-71
2022/12/12 04:13:03;;;;;;;18.77;7.80;;;;;;;-1.07;100.00;99573.84;5057384;56;1138929;-72
2022/12/12 04:18:53;;;;;;;20.35;9.63;;;;;;;-1.07;100.00;99577.24;5045913;56;1138811;-73
2022/12/12 04:24:21;;;;;;;16.02;8.28;;;;;;;-1.04;100.00;99583.20;4928379;57;1138831;-70
2022/12/12 04:29:37;;;;;;;14.97;7.30;;;;;;;-1.00;100.00;99576.98;4867968;58;1139027;-67
2022/12/12 04:34:47;;;;;;;15.05;6.65;;;;;;;-0.94;100.00;99575.41;4977738;57;1139233;-70
2022/12/12 04:39:58;;;;;;;14.80;8.55;;;;;;;-0.93;100.00;99567.56;4886001;58;1138872;-66
2022/12/12 04:45:13;;;;;;;16.23;8.13;;;;;;;-0.88;100.00;99578.55;4951492;57;1139107;-72
2022/12/12 04:50:22;;;;;;;15.17;7.13;;;;;;;-0.86;100.00;99578.03;4958475;57;1142043;-68
2022/12/12 04:55:42;;;;;;;18.10;8.87;;;;;;;-0.85;100.00;99575.83;4996365;57;1138775;-67
2022/12/12 05:01:23;;;;;;;16.27;8.50;;;;;;;-0.83;100.00;99574.00;5094277;55;1138825;-70
2022/12/12 05:06:42;;;;;;;12.13;7.25;;;;;;;-0.78;100.00;99575.94;5198128;55;1138714;-73
2022/12/12 05:11:50;;;;;;;14.00;8.00;;;;;;;-0.73;100.00;99575.70;5100992;55;1138924;-71
2022/12/12 05:17:00;;;;;;;17.23;7.92;;;;;;;-0.72;100.00;99576.94;5083139;55;1139115;-65
2022/12/12 05:22:06;;;;;;;14.58;7.40;;;;;;;-0.68;100.00;99568.55;5035197;56;1138959;-69
2022/12/12 05:27:13;;;;;;;15.08;7.15;;;;;;;-0.66;100.00;99564.14;5137972;55;1139038;-69
2022/12/12 05:32:18;;;;;;;98.82;43.23;;;;;;;-0.66;100.00;99561.54;5184344;55;1139143;-66
2022/12/12 05:37:25;;;;;;;244.83;128.43;;;;;;;-0.64;100.00;99568.80;5093728;56;1141150;-71
2022/12/12 05:42:32;;;;;;;94.10;50.87;;;;;;;-0.63;100.00;99569.64;5142764;55;1145131;-70
2022/12/12 05:47:38;;;;;;;21.97;10.67;;;;;;;-0.60;100.00;99565.58;5106327;55;1141044;-70
2022/12/12 05:52:45;;;;;;;15.37;7.97;;;;;;;-0.58;100.00;99566.35;5066666;56;1140910;-72
2022/12/12 05:57:51;;;;;;;14.05;7.67;;;;;;;-0.58;100.00;99568.95;5099683;55;1138930;-71
2022/12/12 06:02:57;;;;;;;15.00;6.90;;;;;;;-0.58;100.00;99580.18;5125506;55;1148416;-72
2022/12/12 06:08:03;;;;;;;27.93;17.00;;;;;;;-0.58;100.00;99579.34;5062111;56;1138874;-74
2022/12/12 06:13:09;;;;;;;23.60;11.97;;;;;;;-0.62;100.00;99578.66;5105866;56;1141203;-71
2022/12/12 06:18:15;;;;;;;15.07;8.83;;;;;;;-0.65;100.00;99584.00;5136000;56;1141129;-70
2022/12/12 06:23:22;;;;;;;16.17;8.10;;;;;;;-0.69;100.00;99581.15;5116967;55;1138948;-68
2022/12/12 06:28:27;;;;;;;10.00;6.57;;;;;;;-0.72;100.00;99582.58;5116984;55;1139068;-67
2022/12/12 06:33:34;;;;;;;14.30;6.07;;;;;;;-0.72;100.00;99587.77;5099499;55;1139079;-71
2022/12/12 06:38:42;;;;;;;11.83;6.33;;;;;;;-0.74;100.00;99588.30;5130173;55;1138900;-73
2022/12/12 06:43:48;;;;;;;12.87;5.63;;;;;;;-0.75;100.00;99589.20;5130296;54;1138898;-69
2022/12/12 06:48:55;;;;;;;41.73;22.23;;;;;;;-0.77;100.00;99585.41;5128428;55;1237013;-71
2022/12/12 06:54:03;;;;;;;27.90;13.90;;;;;;;-0.74;100.00;99592.19;5129115;55;1140918;-71
2022/12/12 06:59:09;;;;;;;16.47;7.83;;;;;;;-0.74;100.00;99581.80;5128716;55;1140954;-71
2022/12/12 07:04:15;;;;;;;12.63;5.63;;;;;;;-0.76;100.00;99592.26;5186874;55;1138834;-71
2022/12/12 07:09:21;;;;;;;14.57;6.80;;;;;;;-0.75;100.00;99591.80;5140070;55;1138835;-71
2022/12/12 07:14:27;;;;;;;11.47;6.83;;;;;;;-0.73;100.00;99595.17;5063036;56;1138824;-73
2022/12/12 07:19:33;;;;;;;14.57;6.63;;;;;;;-0.73;100.00;99600.37;5044243;56;1139376;-69
2022/12/12 07:24:39;;;;;;;16.48;10.45;;;;;;;-0.73;100.00;99597.77;5136624;55;1139150;-70
2022/12/12 07:29:45;;;;;;;12.07;7.20;;;;;;;-0.73;100.00;99604.27;5119485;55;1141235;-68
2022/12/12 07:34:53;;;;;;;13.50;7.17;;;;;;;-0.73;100.00;99606.86;5134770;55;1139076;-70
2022/12/12 07:39:59;;;;;;;21.60;9.43;;;;;;;-0.72;100.00;99607.25;5093558;56;1138947;-71
2022/12/12 07:45:06;;;;;;;15.30;7.70;;;;;;;-0.73;100.00;99614.65;5086448;56;1138828;-68
2022/12/12 07:50:13;;;;;;;10.27;6.00;;;;;;;-0.73;100.00;99616.79;5116288;55;1139102;-67
2022/12/12 07:55:19;;;;;;;8.47;6.00;;;;;;;-0.71;100.00;99610.23;5172169;55;1138852;-69
2022/12/12 08:00:24;;;;;;;9.33;5.93;;;;;;;-0.68;100.00;99611.39;5100352;55;1136903;-69
2022/12/12 08:05:30;;;;;;;13.17;7.40;;;;;;;-0.67;100.00;99615.67;5031934;56;1137220;-69
2022/12/12 08:10:40;;;;;;;14.43;6.90;;;;;;;-0.65;100.00;99616.45;5079967;55;1138809;-69
2022/12/12 08:15:46;;;;;;;10.37;4.83;;;;;;;-0.65;100.00;99619.05;5084669;55;1138817;-69
2022/12/12 08:20:52;;;;;;;16.53;7.07;;;;;;;-0.66;100.00;99618.66;5064240;56;1138723;-67
2022/12/12 08:25:58;;;;;;;15.23;7.45;;;;;;;-0.63;100.00;99618.98;5121228;55;1143920;-68
2022/12/12 08:31:03;;;;;;;16.90;6.35;;;;;;;-0.61;100.00;99616.67;5085841;55;1138791;-68
2022/12/12 08:36:31;;;;;;;10.42;4.52;;;;;;;-0.57;100.00;99619.52;5134712;55;1138936;-73
2022/12/12 08:41:40;;;;;;;12.13;5.23;;;;;;;-0.57;100.00;99619.52;5150039;56;1138929;-71
2022/12/12 08:46:47;;;;;;;15.30;7.90;;;;;;;-0.56;100.00;99619.91;5130513;55;1138821;-71
2022/12/12 08:51:55;;;;;;;13.48;6.60;;;;;;;-0.53;100.00;99618.93;5190075;55;1138950;-71
2022/12/12 08:57:01;;;;;;;15.63;6.03;;;;;;;-0.51;100.00;99619.70;5216738;55;1139059;-71
2022/12/12 09:02:08;;;;;;;12.57;6.73;;;;;;;-0.45;100.00;99624.59;5217887;55;1138978;-70
2022/12/12 09:07:14;;;;;;;21.37;12.40;;;;;;;-0.42;100.00;99620.56;5217721;55;1138932;-69
2022/12/12 09:12:20;;;;;;;17.10;10.60;;;;;;;-0.38;100.00;99622.95;5225965;55;1140792;-73
2022/12/12 09:17:26;;;;;;;12.65;4.70;;;;;;;-0.32;100.00;99619.23;5210966;55;1140985;-71
2022/12/12 09:22:32;;;;;;;8.83;5.63;;;;;;;-0.27;100.00;99618.98;5217428;55;1139062;-70
2022/12/12 09:27:37;;;;;;;11.83;5.77;;;;;;;-0.23;100.00;99609.69;5204842;55;1136934;-71
2022/12/12 09:32:43;;;;;;;9.10;5.00;;;;;;;-0.17;100.00;99617.20;5179513;55;1139020;-71
2022/12/12 09:37:50;;;;;;;10.00;4.80;;;;;;;-0.10;100.00;99617.73;5066285;55;1136694;-68
2022/12/12 09:42:57;;;;;;;8.55;4.12;;;;;;;-0.03;100.00;99619.97;5154708;55;1138854;-73
2022/12/12 09:48:04;;;;;;;7.92;3.98;;;;;;;0.08;100.00;99619.89;5128573;55;1136725;-69
2022/12/12 09:53:18;;;;;;;8.73;3.90;;;;;;;0.12;100.00;99619.67;5087813;56;1134806;-69
2022/12/12 09:58:44;;;;;;;7.07;3.97;;;;;;;0.21;100.00;99617.06;5046128;55;1134667;-71
2022/12/12 10:04:03;;;;;;;10.50;5.00;;;;;;;0.29;100.00;99624.89;5135138;55;1134677;-69
2022/12/12 10:09:48;;;;;;;8.00;3.60;;;;;;;0.37;100.00;99627.09;5105710;56;1136998;-67
2022/12/12 10:15:10;;;;;;;9.37;4.97;;;;;;;0.47;100.00;99623.09;5068959;55;1135046;-70
2022/12/12 10:20:27;;;;;;;4.77;3.13;;;;;;;0.51;100.00;99623.33;5068993;55;1134738;-70
2022/12/12 10:25:49;;;;;;;4.30;3.10;;;;;;;0.56;100.00;99627.01;5126473;55;1134816;-67
2022/12/12 10:31:35;;;;;;;6.27;2.70;;;;;;;0.63;100.00;99625.76;5047817;56;1134831;-70
2022/12/12 10:36:58;;;;;;;9.63;3.80;;;;;;;0.72;100.00;99623.16;5071832;55;1134491;-70
2022/12/12 10:42:11;;;;;;;4.77;2.23;;;;;;;0.82;100.00;99614.79;4971618;57;1134686;-72
2022/12/12 10:47:17;;;;;;;5.03;3.80;;;;;;;0.83;100.00;99615.17;4952816;56;1134689;-68
2022/12/12 10:52:23;;;;;;;8.13;4.27;;;;;;;0.87;100.00;99613.25;5006826;57;1134898;-72
2022/12/12 10:57:34;;;;;;;14.97;4.57;;;;;;;0.88;100.00;99615.78;4993743;57;1134984;-65
2022/12/12 11:02:43;;;;;;;10.07;4.17;;;;;;;0.90;100.00;99630.87;4970231;57;1136933;-68
2022/12/12 11:07:58;;;;;;;10.07;4.30;;;;;;;0.93;100.00;99635.89;4998075;57;1136810;-73
2022/12/12 11:13:14;;;;;;;5.97;3.15;;;;;;;0.92;100.00;99635.50;4946037;57;1136754;-70
2022/12/12 11:18:23;;;;;;;6.15;3.27;;;;;;;0.91;100.00;99627.80;5046392;56;1134894;-70
2022/12/12 11:23:30;;;;;;;9.13;4.00;;;;;;;0.90;100.00;99623.05;5033205;56;1134779;-73
2022/12/12 11:28:38;;;;;;;11.47;5.00;;;;;;;0.94;100.00;99625.86;5032316;56;1134769;-68
2022/12/12 11:33:54;;;;;;;5.97;2.97;;;;;;;1.01;100.00;99619.42;5052834;56;1136989;-66
2022/12/12 11:39:04;;;;;;;3.80;2.30;;;;;;;1.01;100.00;99622.02;5069221;56;1134754;-65
2022/12/12 11:44:13;;;;;;;10.57;5.37;;;;;;;0.96;100.00;99624.48;4986272;57;1144176;-74
2022/12/12 11:49:20;;;;;;;9.57;3.23;;;;;;;0.94;100.00;99614.59;4966840;57;1136835;-70
2022/12/12 11:54:30;;;;;;;5.17;3.00;;;;;;;0.97;100.00;99615.29;5059492;56;1134861;-71
2022/12/12 12:00:11;;;;;;;10.10;4.43;;;;;;;0.94;100.00;99614.59;4988115;56;1134934;-69
2022/12/12 12:05:27;;;;;;;8.93;3.07;;;;;;;0.90;100.00;99610.04;4972562;57;1136705;-69
2022/12/12 12:10:49;;;;;;;10.07;4.47;;;;;;;0.88;100.00;99609.73;5040645;56;1134758;-71
2022/12/12 12:16:12;;;;;;;10.23;4.23;;;;;;;0.85;100.00;99613.80;5073722;56;1136648;-69
2022/12/12 12:21:31;;;;;;;9.70;4.55;;;;;;;0.85;100.00;99605.98;5000868;57;1136833;-66
2022/12/12 12:27:00;;;;;;;11.50;4.10;;;;;;;0.80;100.00;99593.20;5037173;57;1134536;-69
2022/12/12 12:32:52;;;;;;;10.83;3.43;;;;;;;0.82;100.00;99602.23;5025015;57;1137042;-73
2022/12/12 12:38:27;;;;;;;8.33;3.87;;;;;;;0.84;100.00;99603.00;5007768;57;1136823;-70
2022/12/12 12:43:46;;;;;;;11.47;4.93;;;;;;;0.86;100.00;99602.47;5058107;56;1134685;-68
2022/12/12 12:49:01;;;;;;;7.30;4.05;;;;;;;0.88;100.00;99599.33;4960138;57;1136868;-70
2022/12/12 12:54:18;;;;;;;;;;;;;;;0.86;100.00;99601.16;5095756;56;1134719;-68
2022/12/12 12:59:28;;;;;;;8.90;3.33;;;;;;;0.82;100.00;99594.42;5097002;56;971999;-69
2022/12/12 13:04:53;;;;;;;12.30;4.20;;;;;;;0.78;100.00;99613.26;5112929;56;1132522;-66
2022/12/12 13:10:24;;;;;;;8.10;3.85;;;;;;;0.77;100.00;99608.12;5080648;56;1136726;-69
2022/12/12 13:15:40;;;;;;;8.97;5.07;;;;;;;0.73;100.00;99609.23;4914765;58;1134748;-72
2022/12/12 13:20:53;;;;;;;7.25;4.12;;;;;;;0.75;100.00;99617.80;4956749;58;1134823;-68
2022/12/12 13:26:22;;;;;;;8.02;2.80;;;;;;;0.75;100.00;99617.80;4947548;58;1135093;-68
2022/12/12 13:31:38;;;;;;;8.67;3.30;;;;;;;0.76;100.00;99628.60;4912751;57;1134996;-70
2022/12/12 13:36:48;;;;;;;10.27;4.87;;;;;;;0.77;100.00;99638.91;4852172;57;1134873;-67
2022/12/12 13:42:06;;;;;;;44.43;22.60;;;;;;;0.77;100.00;99636.75;4966856;58;1136928;-69
2022/12/12 13:47:29;;;;;;;76.37;30.57;;;;;;;0.74;100.00;99650.80;4858162;59;1138917;-67
2022/12/12 13:52:41;;;;;;;17.93;10.60;;;;;;;0.74;100.00;99653.86;4978699;56;1138785;-65
2022/12/12 13:58:09;;;;;;;14.65;8.03;;;;;;;0.70;100.00;99657.91;4994224;56;1139002;-68
2022/12/12 14:03:15;;;;;;;41.02;20.02;;;;;;;0.70;100.00;99659.67;4972815;57;1136710;-70
2022/12/12 14:08:31;;;;;;;29.67;15.75;;;;;;;0.68;100.00;99661.50;4889179;57;1139001;-71
2022/12/12 14:13:46;;;;;;;43.40;20.30;;;;;;;0.67;100.00;99663.72;4927562;58;1138940;-71
2022/12/12 14:19:03;;;;;;;104.57;39.80;;;;;;;0.64;100.00;99668.62;4949929;57;1138957;-73
2022/12/12 14:24:41;;;;;;;306.83;105.37;;;;;;;0.63;100.00;99667.39;4937414;57;1140971;-71
2022/12/12 14:29:46;;;;;;;19.83;8.30;;;;;;;0.60;100.00;99668.88;4951528;57;1143145;-68
2022/12/12 14:35:05;;;;;;;80.73;31.83;;;;;;;0.57;100.00;99677.67;4947099;57;1136865;-69
2022/12/12 14:40:34;;;;;;;11.30;5.10;;;;;;;0.57;100.00;99683.33;4951771;58;1138802;-66
2022/12/12 14:45:43;;;;;;;8.73;4.00;;;;;;;0.53;100.00;99681.79;4951435;58;1136769;-68
2022/12/12 14:51:08;;;;;;;8.03;4.23;;;;;;;0.50;100.00;99679.33;4980127;57;1134596;-70
2022/12/12 14:56:24;;;;;;;14.85;4.37;;;;;;;0.44;100.00;99687.00;4962878;57;1134705;-69
2022/12/12 15:01:43;;;;;;;13.23;6.40;;;;;;;0.40;100.00;99687.22;5045951;56;1136639;-70
2022/12/12 15:06:58;;;;;;;32.30;12.47;;;;;;;0.37;100.00;99697.31;5132813;56;1136697;-68
2022/12/12 15:12:17;;;;;;;65.93;24.00;;;;;;;0.33;100.00;99697.06;5086676;55;1139018;-73
2022/12/12 15:17:34;;;;;;;17.83;5.47;;;;;;;0.27;100.00;99708.62;5116047;56;1138859;-72
2022/12/12 15:22:52;;;;;;;11.17;5.43;;;;;;;0.24;100.00;99711.37;5156547;55;1136722;-70
2022/12/12 15:27:58;;;;;;;82.33;29.00;;;;;;;0.22;100.00;99709.76;5219370;55;1136589;-68
2022/12/12 15:33:16;;;;;;;349.10;114.87;;;;;;;0.13;100.00;99714.11;5164140;55;1138860;-70
2022/12/12 15:38:22;;;;;;;291.37;104.17;;;;;;;0.10;100.00;99721.59;5197450;55;1142986;-66
2022/12/12 15:43:31;;;;;;;67.10;20.27;;;;;;;0.07;100.00;99723.03;5198129;55;1143180;-68
2022/12/12 15:48:36;;;;;;;158.63;48.17;;;;;;;0.01;100.00;99719.41;5221924;55;1138893;-66
2022/12/12 15:53:50;;;;;;;98.07;37.13;;;;;;;-0.01;100.00;99721.27;5185220;55;1140860;-73
2022/12/12 15:59:15;;;;;;;36.03;22.30;;;;;;;-0.01;100.00;99723.87;5203658;55;1141200;-69
2022/12/12 16:04:24;;;;;;;9.10;5.30;;;;;;;-0.04;100.00;99734.40;5140992;55;1144039;-74
2022/12/12 16:09:30;;;;;;;6.40;3.90;;;;;;;-0.07;100.00;99733.23;5140046;55;1136849;-70
2022/12/12 16:14:39;;;;;;;6.23;4.47;;;;;;;-0.08;100.00;99736.30;5160943;55;1136824;-68
2022/12/12 16:20:04;;;;;;;8.87;5.37;;;;;;;-0.08;100.00;99744.09;5045249;57;1136759;-68
2022/12/12 16:25:25;;;;;;;10.63;5.17;;;;;;;-0.08;100.00;99746.69;5046198;56;1136868;-74
2022/12/12 16:30:31;;;;;;;13.60;5.62;;;;;;;-0.10;100.00;99752.41;5068525;56;1138946;-68
2022/12/12 16:35:37;;;;;;;13.57;4.90;;;;;;;-0.13;100.00;99749.10;5099842;55;1138951;-71
2022/12/12 16:40:44;;;;;;;7.60;2.70;;;;;;;-0.12;100.00;99752.09;4950154;57;1139147;-71
2022/12/12 16:45:55;;;;;;;14.03;5.47;;;;;;;-0.15;100.00;99753.53;5234306;55;1136620;-69
2022/12/12 16:51:07;;;;;;;62.70;21.15;;;;;;;-0.18;100.00;99754.53;5182945;55;1138748;-71
2022/12/12 16:56:14;;;;;;;49.33;16.50;;;;;;;-0.21;100.00;99759.02;5088490;56;1140900;-65
2022/12/12 17:01:22;;;;;;;15.93;6.00;;;;;;;-0.24;100.00;99763.90;5137900;55;1141134;-67
2022/12/12 17:06:28;;;;;;;19.43;10.13;;;;;;;-0.25;100.00;99769.16;5209040;55;1138792;-71
2022/12/12 17:11:34;;;;;;;7.23;4.83;;;;;;;-0.29;100.00;99774.09;5128088;56;1140913;-69
2022/12/12 17:16:40;;;;;;;11.53;6.80;;;;;;;-0.31;100.00;99769.45;5217218;55;1136710;-74
2022/12/12 17:21:46;;;;;;;10.47;5.27;;;;;;;-0.32;100.00;99775.56;5202092;55;1138981;-72
2022/12/12 17:26:53;;;;;;;10.32;5.92;;;;;;;-0.36;100.00;99787.84;5019332;56;1138970;-69
2022/12/12 17:31:59;;;;;;;11.17;6.47;;;;;;;-0.38;100.00;99784.46;5045891;56;1138857;-69
2022/12/12 17:37:05;;;;;;;42.53;17.13;;;;;;;-0.44;100.00;99790.77;5080862;56;1138918;-69
2022/12/12 17:42:10;;;;;;;212.77;67.57;;;;;;;-0.47;100.00;99795.27;5059128;56;1141114;-71
2022/12/12 17:47:16;;;;;;;87.57;32.50;;;;;;;-0.50;100.00;99801.44;5045899;55;1143132;-66
2022/12/12 17:52:22;;;;;;;14.95;9.10;;;;;;;-0.51;100.00;99806.70;5071303;56;1140974;-68
2022/12/12 17:57:29;;;;;;;9.33;5.77;;;;;;;-0.53;100.00;99813.25;5130149;55;1138854;-70
2022/12/12 18:02:35;;;;;;;17.60;6.87;;;;;;;-0.56;100.00;99806.05;5137721;55;1162852;-72
2022/12/12 18:07:40;;;;;;;23.27;11.10;;;;;;;-0.61;100.00;99814.02;5150398;55;1138834;-68
2022/12/12 18:12:46;;;;;;;23.13;9.83;;;;;;;-0.63;100.00;99818.92;5129602;55;1140882;-69
2022/12/12 18:17:52;;;;;;;371.23;101.83;;;;;;;-0.67;100.00;99825.99;5046582;56;1139032;-72
2022/12/12 18:22:57;;;;;;;29.30;12.60;;;;;;;-0.67;100.00;99834.23;5106141;56;1145208;-64
2022/12/12 18:28:03;;;;;;;138.63;43.63;;;;;;;-0.69;100.00;99838.19;5044418;56;1140863;-72
2022/12/12 18:33:09;;;;;;;267.50;71.57;;;;;;;-0.70;100.00;99836.50;5087879;56;1143154;-69
2022/12/12 18:38:15;;;;;;;22.80;9.25;;;;;;;-0.71;100.00;99831.77;5041530;56;1143125;-69
2022/12/12 18:43:22;;;;;;;71.13;23.97;;;;;;;-0.74;100.00;99844.02;5091125;56;1138836;-69
2022/12/12 18:48:28;;;;;;;26.37;9.53;;;;;;;-0.75;100.00;99842.33;5101228;56;1140915;-72
2022/12/12 18:53:34;;;;;;;99.50;30.80;;;;;;;-0.78;100.00;99852.88;5191025;55;1139266;-72
2022/12/12 18:58:40;;;;;;;120.30;36.80;;;;;;;-0.81;100.00;99843.91;5208970;55;1141026;-69
2022/12/12 19:03:49;;;;;;;28.40;11.83;;;;;;;-0.79;100.00;99852.48;5141857;55;1143081;-72
2022/12/12 19:08:55;;;;;;;18.85;10.13;;;;;;;-0.79;100.00;99855.08;5061345;55;1236406;-68
2022/12/12 19:14:01;;;;;;;13.97;7.40;;;;;;;-0.78;100.00;99866.70;5055175;56;1141143;-70
2022/12/12 19:19:13;;;;;;;17.80;9.50;;;;;;;-0.80;100.00;99871.56;5080291;55;1138833;-70
2022/12/12 19:24:15;;;;;;;12.90;6.15;;;;;;;-0.81;100.00;99875.06;5114712;55;1138941;-75
2022/12/12 19:29:22;;;;;;;16.47;10.43;;;;;;;-0.85;100.00;99879.98;5129996;55;1138806;-69
2022/12/12 19:34:27;;;;;;;25.83;12.40;;;;;;;-0.83;100.00;99882.91;5124193;55;1239375;-71
2022/12/12 19:39:33;;;;;;;132.97;42.23;;;;;;;-0.81;100.00;99879.80;5102386;55;1247790;-71
2022/12/12 19:44:38;;;;;;;61.47;22.17;;;;;;;-0.77;100.00;99897.40;5172792;55;1143642;-70
2022/12/12 19:49:44;;;;;;;23.40;12.33;;;;;;;-0.75;100.00;99890.36;5127172;55;1141089;-71
2022/12/12 19:54:50;;;;;;;22.27;10.40;;;;;;;-0.75;100.00;99897.70;5107678;55;1140959;-70
2022/12/12 19:59:57;;;;;;;14.80;7.73;;;;;;;-0.75;100.00;99903.34;5139731;55;1140910;-73
2022/12/12 20:05:03;;;;;;;12.17;7.27;;;;;;;-0.77;100.00;99900.84;5164361;55;1234413;-71
2022/12/12 20:10:09;;;;;;;16.03;7.70;;;;;;;-0.74;100.00;99909.78;5196273;55;1246048;-67
2022/12/12 20:15:16;;;;;;;18.13;7.43;;;;;;;-0.75;100.00;99908.54;5217003;55;1245926;-68
2022/12/12 20:20:21;;;;;;;16.80;6.53;;;;;;;-0.79;100.00;99915.63;5215760;55;1138940;-70
2022/12/12 20:25:27;;;;;;;14.90;7.70;;;;;;;-0.82;100.00;99901.92;5109272;55;1248008;-69
2022/12/12 20:30:33;;;;;;;13.50;8.20;;;;;;;-0.82;100.00;99907.96;5092834;56;1246450;-74
2022/12/12 20:35:39;;;;;;;13.30;6.97;;;;;;;-0.80;100.00;99906.16;5128274;55;1139005;-68
2022/12/12 20:40:44;;;;;;;13.07;6.70;;;;;;;-0.78;100.00;99909.53;5102123;55;1254655;-66
2022/12/12 20:45:50;;;;;;;13.97;7.97;;;;;;;-0.79;100.00;99913.03;5125154;55;1252555;-74
2022/12/12 20:51:00;;;;;;;12.37;7.33;;;;;;;-0.77;100.00;99922.91;5135733;55;1256899;-74
2022/12/12 20:56:08;;;;;;;11.37;6.17;;;;;;;-0.81;100.00;99925.68;5069804;56;1138878;-70
2022/12/12 21:01:18;;;;;;;13.53;5.97;;;;;;;-0.85;100.00;99937.09;5077783;55;1138982;-72
2022/12/12 21:06:27;;;;;;;8.93;5.30;;;;;;;-0.87;100.00;99944.09;5073058;56;1138940;-69
2022/12/12 21:11:33;;;;;;;9.57;6.47;;;;;;;-0.90;100.00;99939.86;5090357;56;1136774;-67
2022/12/12 21:16:41;;;;;;;15.30;7.03;;;;;;;-0.91;100.00;99936.02;5094992;55;1136736;-70
2022/12/12 21:21:47;;;;;;;10.43;6.00;;;;;;;-0.92;100.00;99938.26;5135546;55;1138683;-71
2022/12/12 21:26:52;;;;;;;13.30;7.73;;;;;;;-0.96;100.00;99945.31;5117105;55;1138832;-69
2022/12/12 21:31:58;;;;;;;11.07;5.20;;;;;;;-0.97;100.00;99953.16;5032485;57;1139083;-72
2022/12/12 21:37:04;;;;;;;15.17;5.43;;;;;;;-1.00;100.00;99952.82;5039102;55;1246831;-73
2022/12/12 21:42:10;;;;;;;11.20;6.13;;;;;;;-1.02;100.00;99957.67;5109890;55;1175621;-72
2022/12/12 21:47:16;;;;;;;10.03;5.50;;;;;;;-1.03;100.00;99945.15;5146628;55;1148793;-68
2022/12/12 21:52:22;;;;;;;10.68;5.85;;;;;;;-1.08;100.00;99955.73;5106003;55;1194842;-66
2022/12/12 21:57:28;;;;;;;10.90;6.00;;;;;;;-1.07;100.00;99959.17;5097740;55;1140035;-72
2022/12/12 22:02:33;;;;;;;18.03;7.67;;;;;;;-1.08;100.00;99957.03;5152026;55;1139076;-71
2022/12/12 22:07:39;;;;;;;20.93;7.63;;;;;;;-1.09;100.00;99967.47;5088521;55;1138858;-67
2022/12/12 22:12:44;;;;;;;16.13;6.87;;;;;;;-1.08;100.00;99970.00;5062304;56;1138883;-71
2022/12/12 22:17:50;;;;;;;13.07;6.40;;;;;;;-1.08;100.00;99975.64;5094939;55;1138820;-67
2022/12/12 22:22:56;;;;;;;11.23;6.07;;;;;;;-1.18;100.00;99954.38;5116418;56;1138899;-70
2022/12/12 22:28:01;;;;;;;13.73;6.70;;;;;;;-1.16;100.00;99971.19;5093818;55;1138878;-68
2022/12/12 22:33:08;;;;;;;9.68;5.40;;;;;;;-1.18;100.00;99977.73;5154863;55;1138887;-69
2022/12/12 22:38:13;;;;;;;17.77;6.90;;;;;;;-1.22;100.00;99978.74;5117737;56;1136736;-71
2022/12/12 22:43:19;;;;;;;6.92;4.53;;;;;;;-1.25;100.00;99985.37;5108923;55;1138866;-73
2022/12/12 22:48:25;;;;;;;8.20;4.10;;;;;;;-1.27;100.00;99990.22;5114043;55;1136997;-73
2022/12/12 22:53:31;;;;;;;15.47;6.60;;;;;;;-1.28;100.00;99991.12;5127918;55;1136668;-68
2022/12/12 22:58:37;;;;;;;10.87;5.30;;;;;;;-1.29;100.00;99989.42;5102376;55;1138905;-69
2022/12/12 23:03:44;;;;;;;11.37;6.13;;;;;;;-1.31;100.00;99996.41;5122853;55;1138843;-69
2022/12/12 23:09:00;;;;;;;14.80;5.07;;;;;;;-1.35;100.00;100006.05;5196563;55;1139006;-71
2022/12/12 23:14:13;;;;;;;13.13;5.60;;;;;;;-1.34;100.00;100003.01;5176008;55;1140913;-67
2022/12/12 23:19:24;;;;;;;7.95;5.08;;;;;;;-1.35;100.00;100011.69;5127083;56;1141205;-71
2022/12/12 23:24:29;;;;;;;7.30;3.97;;;;;;;-1.41;100.00;100002.41;5200561;55;1138924;-71